map of UNN home
UNN - Airport
Location
City:  Ranong, Ranong, Thailand
ICAO:VTSR
IATA:UNN

Details
Type:Airport (Aerodrome, Airfield)
Latitude:946'39"N (9.777622)
Longitude:9835'08"E (98.585483)
Datum:WGS 1984
Elevation:57 ft (17 m)
Variation:0.44W (WMM2015 magnetic declination)
0.02 annual change
Runways:1
Longest:6562 × 148 ft (2000 × 45 m), paved

Time
Time Zone:UTC+7
Local Time:

Weather
METAR:VTSR 180600Z 09009KT 050V150 9999 FEW020 BKN100 28/23 Q1010 NOSIG
TAF:VTSR 180500Z 1806/1906 06008KT 9999 BKN025
TEMPO 1808/1812 VRB10G20KT 3000 TSRA FEW018TCU SCT020 BKN100
BECMG 1814/1816 VRB02KT 8000 FEW025
BECMG 1902/1904 08008KT 9999

Related Locations
Nearby:
Farthest:CHM: 12247 mi / 19710 km
Chimbote [Teniente FAP Jaime A. de Montrevil Morales], ANC, PE

Find:

   beyond  
but within

Other Information
Maps:
NOTAMs:
Links:
Sources:

  
  • flag of Thailand
  

Sectional Chart

Flight Planning
at skyvector.com

Satellite Image

Google Maps Satellite view

 

Copyright © 2004-2019 Karl L. Swartz. All rights reserved.
The Great Circle Mapper name and logo are trademarks of the Great Circle Mapper.
All other trademarks mentioned herein belong to their respective owners.
Please see credits for attibutions and further copyright information.

  Follow gcmap on Facebook Follow gcmap on Twitter Follow gcmap on Google+ GCmap on LinkedIn

hCard Microformat

Geo Microformat